Terminal Aerodrome Forecast
Issued by NWS Grand Forks, ND

Home | Current Version | Previous Version | Text Only | Print | Product List | Glossary On
Versions: 1 2 3 4 5 6 7 8 9 10 11 12 13 14 15 16 17 18 19 20 21 22 23 24 25
056
FTUS43 KFGF 221739
TAFGFK
TAF
KGFK 221739Z 2218/2318 01017KT P6SM OVC035
      TEMPO 2219/2220 4SM -RASN OVC007
     FM222100 36014KT 5SM BR OVC020
     FM222200 36014KT P6SM OVC025
     FM230400 35010KT P6SM OVC045
     FM230900 36008KT P6SM BKN020
     FM231200 36007KT P6SM BKN015
     FM231300 36007KT P6SM BKN020=

USA.gov is the U.S. government's official web portal to all federal, state and local government web resources and services.